AirNav   Air Wisconsin Up To $57,000 Bonus
 
 1308 users online  

IS34 Piper's Landing Airport
Lawrenceville, Illinois, USA

GOING TO LAWRENCEVILLE?


FAA INFORMATION EFFECTIVE 01 DECEMBER 2022

Location

FAA Identifier: IS34
Lat/Long: 38-42-24.1690N 087-38-00.0880W
38-42.402817N 087-38.001467W
38.7067136,-87.6333578
(estimated)
Elevation: 425 ft. / 130 m (estimated)
Variation: 01W (1990)
From city: 3 miles SE of LAWRENCEVILLE, IL
Time zone: UTC -6 (UTC -5 during Daylight Saving Time)
Zip code: 62439

Airport Operations

Airport use: Private use. Permission required prior to landing
Activation date: 09/1993
Control tower: no
ARTCC: INDIANAPOLIS CENTER
FSS: SAINT LOUIS FLIGHT SERVICE STATION
Attendance: UNATNDD
Wind indicator: yes
Segmented circle: no

Airport Communications

WX ASOS at LWV (4 nm N): 118.0 (618-943-5252)
WX AWOS-3 at AJG (7 nm SW): 134.900 (618-948-2184)
WX AWOS-3 at RSV (19 nm N): 120.50 (618-586-2772)

Nearby radio navigation aids

NDB name  Hdg/Dist  Freq  Var  ID
PALESTINE182/18.439103WPLX .--. .-.. -..-
OLNEY095/25.327203WOLY --- .-.. -.--

Airport Services

Runway Information

Runway 18/36

Dimensions: 2500 x 70 ft. / 762 x 21 m
Surface: turf
RUNWAY 18  RUNWAY 36
Traffic pattern: leftleft
Obstructions: none15 ft. road, 225 ft. from runway

Airport Ownership and Management from official FAA records

Ownership: Privately-owned
Owner: J D PIPER
RR 4 BOX 139
LAWRENCEVILLE, IL 62429
Phone 618-943-4166
Manager: J D PIPER
RR 4 BOX 139
LAWRENCEVILLE, IL 62429
Phone 618-943-4166

Additional Remarks

FOR CD CTC EVANSVILLE APCH AT 812-436-4690, WHEN APCH CLSD CTC INDIANAPOLIS ARTCC AT 317-247-2411.

Instrument Procedures

There are no published instrument procedures at IS34.

Some nearby airports with instrument procedures:

KLWV - Lawrenceville-Vincennes International Airport (4 nm N)
KAJG - Mount Carmel Municipal Airport (7 nm SW)
KRSV - Crawford County Airport (19 nm N)
KDCY - Daviess County Airport (24 nm E)
KOLY - Olney-Noble Airport (25 nm W)
 
Loc | Ops | Rwys | IFR | FBO | Links
Com | Nav | Svcs | Stats | Notes
Area around IS34 (Piper's Landing Airport)
 
Road maps at: MapQuest Bing Google
 
Aerial photo
No photo
 
Sectional chart

 
Airport distance calculator
Flying to Piper's Landing Airport? Find the distance to fly.

From to IS34

Sunrise and sunset
Times for 07-Dec-2022
 Local
(UTC-6)
 Zulu
(UTC)
Morning civil twilight06:2712:27
Sunrise06:5612:56
Sunset16:2822:28
Evening civil twilight16:5722:57

Current date and time
Zulu (UTC)  07-Dec-2022 15:11:30
Local (UTC-6)  07-Dec-2022 09:11:30
 
METAR
KLWV 
4nm NE 
071453Z AUTO 33006KT 3SM BR SCT008 OVC012 08/07 A3024 RMK AO2 PRESRR SLP240 T00780067 53025 $
KAJG 
7nm SW 
071455Z AUTO 34007KT 2SM BR BKN005 OVC012 08/08 A3023 RMK AO2 T00840080
KRSV 
19nm N 
071455Z AUTO 36008KT 3/4SM BR OVC003 06/06 A3024 RMK AO2 T00550055
TAF
KEVV 
40nm S 
071427Z 0714/0812 35003KT 1/4SM FG OVC002 FM071500 34003KT 1 1/2SM BR OVC003 FM071600 34004KT 3SM BR OVC007 FM071700 34004KT P6SM OVC010 FM071900 34004KT P6SM BKN023 FM080600 05003KT P6SM OVC019
KHNB 
42nm SE 
071330Z 0714/0812 00000KT 1/4SM FG OVC003 FM071430 34004KT 3SM BR OVC003 FM071600 32006KT P6SM BKN008 FM072200 01005KT P6SM BKN035 FM080600 04005KT P6SM BKN015
KHUF 
47nm N 
071120Z 0712/0812 01004KT 5SM BR FEW010 BKN025 TEMPO 0712/0714 4SM BR BKN011 FM071500 34003KT 6SM BR SCT011 OVC025 FM071800 32005KT P6SM BKN035 FM072300 01004KT 5SM BR SCT010 BKN015 FM080400 04004KT 3SM BR BKN010
NOTAMs
Click for the latest NOTAMs
NOTAMs are issued by the DoD/FAA and will open in a separate window not controlled by AirNav.

 

 
 

Would you like to see your business listed on this page?

 If your business provides an interesting product or service to pilots, flight crews, aircraft, or users of the Piper's Landing Airport, you should consider listing it here.  To start the listing process, click on the button below
 
Add a business
 

Other Pages about Piper's Landing Airport

Update a link
 
Copyright © AirNav, LLC. All rights reserved. Privacy Policy  Contact